sensor_id;sensor_type;location;lat;lon;timestamp;P1;durP1;ratioP1;P2;durP2;ratioP2
18881;SDS011;9573;50.948;11.600;2024-02-21T00:00:12;18.60;;;3.60;;
18881;SDS011;9573;50.948;11.600;2024-02-21T00:02:42;21.27;;;3.83;;
18881;SDS011;9573;50.948;11.600;2024-02-21T00:05:09;16.43;;;3.37;;
18881;SDS011;9573;50.948;11.600;2024-02-21T00:07:36;21.60;;;3.63;;
18881;SDS011;9573;50.948;11.600;2024-02-21T00:10:05;16.80;;;3.47;;
18881;SDS011;9573;50.948;11.600;2024-02-21T00:12:34;18.33;;;3.40;;
18881;SDS011;9573;50.948;11.600;2024-02-21T00:15:01;17.17;;;3.67;;
18881;SDS011;9573;50.948;11.600;2024-02-21T00:17:29;22.93;;;3.80;;
18881;SDS011;9573;50.948;11.600;2024-02-21T00:19:56;15.47;;;3.53;;
18881;SDS011;9573;50.948;11.600;2024-02-21T00:22:23;20.50;;;4.03;;
18881;SDS011;9573;50.948;11.600;2024-02-21T00:24:53;16.00;;;3.47;;
18881;SDS011;9573;50.948;11.600;2024-02-21T00:27:21;19.43;;;3.93;;
18881;SDS011;9573;50.948;11.600;2024-02-21T00:29:48;20.07;;;3.93;;
18881;SDS011;9573;50.948;11.600;2024-02-21T00:32:15;13.13;;;3.47;;
18881;SDS011;9573;50.948;11.600;2024-02-21T00:34:43;15.60;;;3.80;;
18881;SDS011;9573;50.948;11.600;2024-02-21T00:37:10;17.73;;;4.13;;
18881;SDS011;9573;50.948;11.600;2024-02-21T00:39:37;13.20;;;3.17;;
18881;SDS011;9573;50.948;11.600;2024-02-21T00:42:04;14.53;;;3.67;;
18881;SDS011;9573;50.948;11.600;2024-02-21T00:44:33;20.27;;;3.77;;
18881;SDS011;9573;50.948;11.600;2024-02-21T00:47:00;20.83;;;3.93;;
18881;SDS011;9573;50.948;11.600;2024-02-21T00:49:27;22.07;;;3.50;;
18881;SDS011;9573;50.948;11.600;2024-02-21T00:51:55;13.20;;;3.30;;
18881;SDS011;9573;50.948;11.600;2024-02-21T00:54:22;19.33;;;3.83;;
18881;SDS011;9573;50.948;11.600;2024-02-21T00:56:49;13.27;;;3.23;;
18881;SDS011;9573;50.948;11.600;2024-02-21T00:59:16;16.97;;;3.57;;
18881;SDS011;9573;50.948;11.600;2024-02-21T01:01:44;18.63;;;3.57;;
18881;SDS011;9573;50.948;11.600;2024-02-21T01:04:11;22.53;;;3.80;;
18881;SDS011;9573;50.948;11.600;2024-02-21T01:06:38;19.37;;;3.80;;
18881;SDS011;9573;50.948;11.600;2024-02-21T01:09:08;15.63;;;3.60;;
18881;SDS011;9573;50.948;11.600;2024-02-21T01:11:34;20.63;;;4.00;;
18881;SDS011;9573;50.948;11.600;2024-02-21T01:14:01;23.00;;;4.23;;
18881;SDS011;9573;50.948;11.600;2024-02-21T01:16:29;19.60;;;3.47;;
18881;SDS011;9573;50.948;11.600;2024-02-21T01:18:57;24.77;;;4.27;;
18881;SDS011;9573;50.948;11.600;2024-02-21T01:21:24;16.77;;;3.80;;
18881;SDS011;9573;50.948;11.600;2024-02-21T01:23:51;16.57;;;3.63;;
18881;SDS011;9573;50.948;11.600;2024-02-21T01:26:18;19.23;;;3.77;;
18881;SDS011;9573;50.948;11.600;2024-02-21T01:28:45;15.57;;;3.43;;
18881;SDS011;9573;50.948;11.600;2024-02-21T01:31:12;18.77;;;3.67;;
18881;SDS011;9573;50.948;11.600;2024-02-21T01:33:40;22.97;;;4.00;;
18881;SDS011;9573;50.948;11.600;2024-02-21T01:36:09;22.03;;;4.20;;
18881;SDS011;9573;50.948;11.600;2024-02-21T01:38:36;20.60;;;4.70;;
18881;SDS011;9573;50.948;11.600;2024-02-21T01:41:03;15.80;;;3.50;;
18881;SDS011;9573;50.948;11.600;2024-02-21T01:43:30;18.90;;;4.17;;
18881;SDS011;9573;50.948;11.600;2024-02-21T01:45:57;26.63;;;4.10;;
18881;SDS011;9573;50.948;11.600;2024-02-21T01:48:24;20.27;;;4.40;;
18881;SDS011;9573;50.948;11.600;2024-02-21T01:50:52;15.53;;;3.70;;
18881;SDS011;9573;50.948;11.600;2024-02-21T01:53:22;20.17;;;3.83;;
18881;SDS011;9573;50.948;11.600;2024-02-21T01:55:54;17.43;;;3.53;;
18881;SDS011;9573;50.948;11.600;2024-02-21T01:58:21;19.60;;;4.00;;
18881;SDS011;9573;50.948;11.600;2024-02-21T02:00:49;18.40;;;4.30;;
18881;SDS011;9573;50.948;11.600;2024-02-21T02:03:17;23.53;;;3.80;;
18881;SDS011;9573;50.948;11.600;2024-02-21T02:05:44;16.93;;;4.10;;
18881;SDS011;9573;50.948;11.600;2024-02-21T02:08:12;17.87;;;3.80;;
18881;SDS011;9573;50.948;11.600;2024-02-21T02:10:41;21.77;;;3.73;;
18881;SDS011;9573;50.948;11.600;2024-02-21T02:13:09;15.70;;;4.17;;
18881;SDS011;9573;50.948;11.600;2024-02-21T02:15:39;19.10;;;3.63;;
18881;SDS011;9573;50.948;11.600;2024-02-21T02:18:07;18.90;;;4.27;;
18881;SDS011;9573;50.948;11.600;2024-02-21T02:20:34;15.13;;;3.80;;
18881;SDS011;9573;50.948;11.600;2024-02-21T02:23:03;17.93;;;3.77;;
18881;SDS011;9573;50.948;11.600;2024-02-21T02:25:37;22.73;;;4.20;;
18881;SDS011;9573;50.948;11.600;2024-02-21T02:28:05;18.47;;;3.87;;
18881;SDS011;9573;50.948;11.600;2024-02-21T02:30:33;20.50;;;4.67;;
18881;SDS011;9573;50.948;11.600;2024-02-21T02:33:01;20.93;;;4.47;;
18881;SDS011;9573;50.948;11.600;2024-02-21T02:35:28;17.60;;;4.27;;
18881;SDS011;9573;50.948;11.600;2024-02-21T02:37:55;25.87;;;4.20;;
18881;SDS011;9573;50.948;11.600;2024-02-21T02:40:22;19.77;;;4.23;;
18881;SDS011;9573;50.948;11.600;2024-02-21T02:42:51;22.87;;;4.50;;
18881;SDS011;9573;50.948;11.600;2024-02-21T02:45:20;16.70;;;4.13;;
18881;SDS011;9573;50.948;11.600;2024-02-21T02:47:51;20.83;;;4.50;;
18881;SDS011;9573;50.948;11.600;2024-02-21T02:50:19;19.27;;;4.23;;
18881;SDS011;9573;50.948;11.600;2024-02-21T02:52:46;25.27;;;4.20;;
18881;SDS011;9573;50.948;11.600;2024-02-21T02:55:13;18.33;;;3.80;;
18881;SDS011;9573;50.948;11.600;2024-02-21T02:57:40;16.33;;;4.03;;
18881;SDS011;9573;50.948;11.600;2024-02-21T03:00:10;19.47;;;4.40;;
18881;SDS011;9573;50.948;11.600;2024-02-21T03:02:38;24.70;;;4.50;;
18881;SDS011;9573;50.948;11.600;2024-02-21T03:05:11;23.33;;;4.63;;
18881;SDS011;9573;50.948;11.600;2024-02-21T03:07:40;18.70;;;4.00;;
18881;SDS011;9573;50.948;11.600;2024-02-21T03:10:07;21.50;;;4.43;;
18881;SDS011;9573;50.948;11.600;2024-02-21T03:12:35;20.17;;;4.23;;
18881;SDS011;9573;50.948;11.600;2024-02-21T03:15:03;17.23;;;4.43;;
18881;SDS011;9573;50.948;11.600;2024-02-21T03:17:32;17.40;;;4.50;;
18881;SDS011;9573;50.948;11.600;2024-02-21T03:20:00;14.87;;;4.10;;
18881;SDS011;9573;50.948;11.600;2024-02-21T03:22:30;13.97;;;4.13;;
18881;SDS011;9573;50.948;11.600;2024-02-21T03:24:57;18.30;;;4.20;;
18881;SDS011;9573;50.948;11.600;2024-02-21T03:27:24;17.70;;;4.33;;
18881;SDS011;9573;50.948;11.600;2024-02-21T03:29:51;18.00;;;3.93;;
18881;SDS011;9573;50.948;11.600;2024-02-21T03:32:19;18.90;;;4.20;;
18881;SDS011;9573;50.948;11.600;2024-02-21T03:34:47;24.60;;;4.10;;
18881;SDS011;9573;50.948;11.600;2024-02-21T03:37:14;17.33;;;4.13;;
18881;SDS011;9573;50.948;11.600;2024-02-21T03:39:41;19.63;;;3.73;;
18881;SDS011;9573;50.948;11.600;2024-02-21T03:42:08;15.30;;;3.83;;
18881;SDS011;9573;50.948;11.600;2024-02-21T03:44:36;17.77;;;4.20;;
18881;SDS011;9573;50.948;11.600;2024-02-21T03:47:03;19.40;;;4.10;;
18881;SDS011;9573;50.948;11.600;2024-02-21T03:49:30;14.63;;;3.80;;
18881;SDS011;9573;50.948;11.600;2024-02-21T03:51:59;15.50;;;4.07;;
18881;SDS011;9573;50.948;11.600;2024-02-21T03:54:26;15.70;;;3.93;;
18881;SDS011;9573;50.948;11.600;2024-02-21T03:56:53;20.97;;;4.37;;
18881;SDS011;9573;50.948;11.600;2024-02-21T03:59:20;22.13;;;4.50;;
18881;SDS011;9573;50.948;11.600;2024-02-21T04:01:51;18.20;;;4.57;;
18881;SDS011;9573;50.948;11.600;2024-02-21T04:04:18;23.57;;;4.40;;
18881;SDS011;9573;50.948;11.600;2024-02-21T04:06:46;20.13;;;4.37;;
18881;SDS011;9573;50.948;11.600;2024-02-21T04:09:14;17.13;;;4.03;;
18881;SDS011;9573;50.948;11.600;2024-02-21T04:11:42;16.40;;;4.27;;
18881;SDS011;9573;50.948;11.600;2024-02-21T04:14:09;15.80;;;4.23;;
18881;SDS011;9573;50.948;11.600;2024-02-21T04:16:36;15.43;;;4.13;;
18881;SDS011;9573;50.948;11.600;2024-02-21T04:19:04;20.93;;;4.77;;
18881;SDS011;9573;50.948;11.600;2024-02-21T04:21:31;19.77;;;4.40;;
18881;SDS011;9573;50.948;11.600;2024-02-21T04:23:58;24.07;;;5.03;;
18881;SDS011;9573;50.948;11.600;2024-02-21T04:26:28;18.83;;;4.23;;
18881;SDS011;9573;50.948;11.600;2024-02-21T04:28:55;20.77;;;4.90;;
18881;SDS011;9573;50.948;11.600;2024-02-21T04:31:22;24.63;;;5.10;;
18881;SDS011;9573;50.948;11.600;2024-02-21T04:33:49;22.53;;;4.73;;
18881;SDS011;9573;50.948;11.600;2024-02-21T04:36:16;16.20;;;4.53;;
18881;SDS011;9573;50.948;11.600;2024-02-21T04:38:43;19.33;;;4.40;;
18881;SDS011;9573;50.948;11.600;2024-02-21T04:41:11;21.27;;;5.30;;
18881;SDS011;9573;50.948;11.600;2024-02-21T04:43:39;22.70;;;4.67;;
18881;SDS011;9573;50.948;11.600;2024-02-21T04:46:07;19.40;;;4.73;;
18881;SDS011;9573;50.948;11.600;2024-02-21T04:48:34;23.47;;;4.43;;
18881;SDS011;9573;50.948;11.600;2024-02-21T04:51:02;20.63;;;5.00;;
18881;SDS011;9573;50.948;11.600;2024-02-21T04:53:29;20.77;;;4.50;;
18881;SDS011;9573;50.948;11.600;2024-02-21T04:55:56;16.50;;;4.10;;
18881;SDS011;9573;50.948;11.600;2024-02-21T04:58:23;21.53;;;4.97;;
18881;SDS011;9573;50.948;11.600;2024-02-21T05:00:52;20.83;;;4.93;;
18881;SDS011;9573;50.948;11.600;2024-02-21T05:03:20;21.03;;;4.47;;
18881;SDS011;9573;50.948;11.600;2024-02-21T05:05:47;19.57;;;5.30;;
18881;SDS011;9573;50.948;11.600;2024-02-21T05:08:15;22.40;;;4.90;;
18881;SDS011;9573;50.948;11.600;2024-02-21T05:10:42;27.33;;;4.57;;
18881;SDS011;9573;50.948;11.600;2024-02-21T05:13:09;17.43;;;4.80;;
18881;SDS011;9573;50.948;11.600;2024-02-21T05:15:36;20.77;;;5.00;;
18881;SDS011;9573;50.948;11.600;2024-02-21T05:18:04;21.00;;;5.73;;
18881;SDS011;9573;50.948;11.600;2024-02-21T05:20:31;19.03;;;4.43;;
18881;SDS011;9573;50.948;11.600;2024-02-21T05:22:59;21.00;;;4.70;;
18881;SDS011;9573;50.948;11.600;2024-02-21T05:25:26;22.60;;;5.80;;
18881;SDS011;9573;50.948;11.600;2024-02-21T05:27:53;24.10;;;5.33;;
18881;SDS011;9573;50.948;11.600;2024-02-21T05:30:20;25.20;;;5.37;;
18881;SDS011;9573;50.948;11.600;2024-02-21T05:32:48;15.77;;;4.80;;
18881;SDS011;9573;50.948;11.600;2024-02-21T05:35:16;28.33;;;4.97;;
18881;SDS011;9573;50.948;11.600;2024-02-21T05:37:43;22.47;;;4.90;;
18881;SDS011;9573;50.948;11.600;2024-02-21T05:40:12;22.97;;;5.00;;
18881;SDS011;9573;50.948;11.600;2024-02-21T05:42:39;17.33;;;5.00;;
18881;SDS011;9573;50.948;11.600;2024-02-21T05:45:08;21.87;;;5.40;;
18881;SDS011;9573;50.948;11.600;2024-02-21T05:47:35;24.20;;;5.80;;
18881;SDS011;9573;50.948;11.600;2024-02-21T05:50:03;24.17;;;5.40;;
18881;SDS011;9573;50.948;11.600;2024-02-21T05:52:32;23.67;;;5.63;;
18881;SDS011;9573;50.948;11.600;2024-02-21T05:54:59;20.80;;;4.60;;
18881;SDS011;9573;50.948;11.600;2024-02-21T05:57:26;21.90;;;5.03;;
18881;SDS011;9573;50.948;11.600;2024-02-21T05:59:53;25.23;;;5.07;;
18881;SDS011;9573;50.948;11.600;2024-02-21T06:02:20;17.17;;;5.17;;
18881;SDS011;9573;50.948;11.600;2024-02-21T06:04:50;20.47;;;4.97;;
18881;SDS011;9573;50.948;11.600;2024-02-21T06:07:18;24.27;;;5.50;;
18881;SDS011;9573;50.948;11.600;2024-02-21T06:09:46;21.23;;;5.53;;
18881;SDS011;9573;50.948;11.600;2024-02-21T06:12:13;20.53;;;5.30;;
18881;SDS011;9573;50.948;11.600;2024-02-21T06:14:40;23.70;;;5.23;;
18881;SDS011;9573;50.948;11.600;2024-02-21T06:17:08;24.73;;;6.40;;
18881;SDS011;9573;50.948;11.600;2024-02-21T06:19:34;26.37;;;5.73;;
18881;SDS011;9573;50.948;11.600;2024-02-21T06:22:02;22.47;;;5.10;;
18881;SDS011;9573;50.948;11.600;2024-02-21T06:24:32;24.43;;;5.00;;
18881;SDS011;9573;50.948;11.600;2024-02-21T06:27:01;18.97;;;4.80;;
18881;SDS011;9573;50.948;11.600;2024-02-21T06:29:28;27.03;;;4.50;;
18881;SDS011;9573;50.948;11.600;2024-02-21T06:31:55;19.43;;;5.13;;
18881;SDS011;9573;50.948;11.600;2024-02-21T06:34:22;21.37;;;5.40;;
18881;SDS011;9573;50.948;11.600;2024-02-21T06:36:50;23.37;;;5.80;;
18881;SDS011;9573;50.948;11.600;2024-02-21T06:39:17;25.60;;;5.37;;
18881;SDS011;9573;50.948;11.600;2024-02-21T06:41:44;20.07;;;4.60;;
18881;SDS011;9573;50.948;11.600;2024-02-21T06:44:14;24.30;;;4.57;;
18881;SDS011;9573;50.948;11.600;2024-02-21T06:46:41;20.70;;;5.70;;
18881;SDS011;9573;50.948;11.600;2024-02-21T06:49:08;24.73;;;5.47;;
18881;SDS011;9573;50.948;11.600;2024-02-21T06:51:40;19.87;;;4.80;;
18881;SDS011;9573;50.948;11.600;2024-02-21T06:54:08;25.63;;;4.93;;
18881;SDS011;9573;50.948;11.600;2024-02-21T06:56:35;20.93;;;5.43;;
18881;SDS011;9573;50.948;11.600;2024-02-21T06:59:03;22.33;;;4.93;;
18881;SDS011;9573;50.948;11.600;2024-02-21T07:01:32;20.90;;;5.33;;
18881;SDS011;9573;50.948;11.600;2024-02-21T07:03:59;17.80;;;4.90;;
18881;SDS011;9573;50.948;11.600;2024-02-21T07:06:26;17.17;;;4.40;;
18881;SDS011;9573;50.948;11.600;2024-02-21T07:08:53;18.23;;;4.80;;
18881;SDS011;9573;50.948;11.600;2024-02-21T07:11:20;22.17;;;5.17;;
18881;SDS011;9573;50.948;11.600;2024-02-21T07:13:47;20.20;;;4.80;;
18881;SDS011;9573;50.948;11.600;2024-02-21T07:16:14;18.47;;;4.67;;
18881;SDS011;9573;50.948;11.600;2024-02-21T07:18:43;24.10;;;4.87;;
18881;SDS011;9573;50.948;11.600;2024-02-21T07:21:10;17.83;;;4.93;;
18881;SDS011;9573;50.948;11.600;2024-02-21T07:23:40;17.67;;;4.57;;
18881;SDS011;9573;50.948;11.600;2024-02-21T07:26:07;19.37;;;5.10;;
18881;SDS011;9573;50.948;11.600;2024-02-21T07:28:34;16.93;;;4.43;;
18881;SDS011;9573;50.948;11.600;2024-02-21T07:31:02;21.00;;;4.73;;
18881;SDS011;9573;50.948;11.600;2024-02-21T07:33:29;21.70;;;4.83;;
18881;SDS011;9573;50.948;11.600;2024-02-21T07:35:59;19.53;;;5.40;;
18881;SDS011;9573;50.948;11.600;2024-02-21T07:38:26;20.07;;;4.77;;
18881;SDS011;9573;50.948;11.600;2024-02-21T07:40:53;20.77;;;4.80;;
18881;SDS011;9573;50.948;11.600;2024-02-21T07:43:20;19.17;;;4.53;;
18881;SDS011;9573;50.948;11.600;2024-02-21T07:45:47;16.47;;;4.50;;
18881;SDS011;9573;50.948;11.600;2024-02-21T07:48:14;18.37;;;4.57;;
18881;SDS011;9573;50.948;11.600;2024-02-21T07:50:42;23.13;;;4.70;;
18881;SDS011;9573;50.948;11.600;2024-02-21T07:53:11;21.37;;;4.70;;
18881;SDS011;9573;50.948;11.600;2024-02-21T07:55:38;18.67;;;4.73;;
18881;SDS011;9573;50.948;11.600;2024-02-21T07:58:05;18.17;;;4.27;;
18881;SDS011;9573;50.948;11.600;2024-02-21T08:00:32;20.47;;;4.70;;
18881;SDS011;9573;50.948;11.600;2024-02-21T08:02:59;25.10;;;4.87;;
18881;SDS011;9573;50.948;11.600;2024-02-21T08:05:27;20.17;;;5.17;;
18881;SDS011;9573;50.948;11.600;2024-02-21T08:07:55;24.90;;;5.80;;
18881;SDS011;9573;50.948;11.600;2024-02-21T08:10:23;24.40;;;5.23;;
18881;SDS011;9573;50.948;11.600;2024-02-21T08:12:50;23.80;;;5.80;;
18881;SDS011;9573;50.948;11.600;2024-02-21T08:15:17;21.23;;;4.90;;
18881;SDS011;9573;50.948;11.600;2024-02-21T08:17:45;21.23;;;4.80;;
18881;SDS011;9573;50.948;11.600;2024-02-21T08:20:12;24.97;;;4.83;;
18881;SDS011;9573;50.948;11.600;2024-02-21T08:22:40;19.03;;;5.17;;
18881;SDS011;9573;50.948;11.600;2024-02-21T08:25:07;23.67;;;5.60;;
18881;SDS011;9573;50.948;11.600;2024-02-21T08:27:36;26.97;;;6.00;;
18881;SDS011;9573;50.948;11.600;2024-02-21T08:30:04;31.67;;;6.53;;
18881;SDS011;9573;50.948;11.600;2024-02-21T08:32:33;25.90;;;5.20;;
18881;SDS011;9573;50.948;11.600;2024-02-21T08:35:01;20.77;;;4.63;;
18881;SDS011;9573;50.948;11.600;2024-02-21T08:37:28;18.03;;;4.80;;
18881;SDS011;9573;50.948;11.600;2024-02-21T08:39:55;18.57;;;4.77;;
18881;SDS011;9573;50.948;11.600;2024-02-21T08:42:22;29.13;;;5.43;;
18881;SDS011;9573;50.948;11.600;2024-02-21T08:44:50;18.20;;;4.23;;
18881;SDS011;9573;50.948;11.600;2024-02-21T08:47:17;13.93;;;4.77;;
18881;SDS011;9573;50.948;11.600;2024-02-21T08:49:44;17.67;;;4.47;;
18881;SDS011;9573;50.948;11.600;2024-02-21T08:52:11;15.87;;;4.40;;
18881;SDS011;9573;50.948;11.600;2024-02-21T08:54:38;21.63;;;4.97;;
18881;SDS011;9573;50.948;11.600;2024-02-21T08:57:05;18.43;;;4.13;;
18881;SDS011;9573;50.948;11.600;2024-02-21T08:59:32;22.53;;;4.60;;
18881;SDS011;9573;50.948;11.600;2024-02-21T09:02:01;15.33;;;3.80;;
18881;SDS011;9573;50.948;11.600;2024-02-21T09:04:28;13.33;;;3.73;;
18881;SDS011;9573;50.948;11.600;2024-02-21T09:06:56;16.83;;;3.90;;
18881;SDS011;9573;50.948;11.600;2024-02-21T09:09:23;15.67;;;3.83;;
18881;SDS011;9573;50.948;11.600;2024-02-21T09:11:50;17.20;;;3.77;;
18881;SDS011;9573;50.948;11.600;2024-02-21T09:14:17;28.20;;;4.37;;
18881;SDS011;9573;50.948;11.600;2024-02-21T09:16:44;18.63;;;3.90;;
18881;SDS011;9573;50.948;11.600;2024-02-21T09:19:12;12.73;;;3.80;;
18881;SDS011;9573;50.948;11.600;2024-02-21T09:21:39;11.80;;;3.30;;
18881;SDS011;9573;50.948;11.600;2024-02-21T09:24:06;15.33;;;3.83;;
18881;SDS011;9573;50.948;11.600;2024-02-21T09:26:34;16.93;;;3.57;;
18881;SDS011;9573;50.948;11.600;2024-02-21T09:29:01;12.80;;;3.57;;
18881;SDS011;9573;50.948;11.600;2024-02-21T09:31:29;14.47;;;3.87;;
18881;SDS011;9573;50.948;11.600;2024-02-21T09:33:56;12.50;;;3.80;;
18881;SDS011;9573;50.948;11.600;2024-02-21T09:36:27;16.70;;;3.20;;
18881;SDS011;9573;50.948;11.600;2024-02-21T09:38:56;18.20;;;3.70;;
18881;SDS011;9573;50.948;11.600;2024-02-21T09:41:25;10.40;;;2.90;;
18881;SDS011;9573;50.948;11.600;2024-02-21T09:43:53;11.90;;;3.27;;
18881;SDS011;9573;50.948;11.600;2024-02-21T09:46:22;13.80;;;3.47;;
18881;SDS011;9573;50.948;11.600;2024-02-21T09:49:12;14.70;;;3.67;;
18881;SDS011;9573;50.948;11.600;2024-02-21T09:51:50;16.77;;;3.57;;
18881;SDS011;9573;50.948;11.600;2024-02-21T09:54:20;15.10;;;3.67;;
18881;SDS011;9573;50.948;11.600;2024-02-21T09:56:48;13.47;;;3.70;;
18881;SDS011;9573;50.948;11.600;2024-02-21T09:59:15;15.93;;;3.43;;
18881;SDS011;9573;50.948;11.600;2024-02-21T10:01:43;12.57;;;3.13;;
18881;SDS011;9573;50.948;11.600;2024-02-21T10:04:11;16.13;;;3.60;;
18881;SDS011;9573;50.948;11.600;2024-02-21T10:06:39;16.67;;;4.07;;
18881;SDS011;9573;50.948;11.600;2024-02-21T10:09:07;11.37;;;3.47;;
18881;SDS011;9573;50.948;11.600;2024-02-21T10:11:34;12.63;;;3.40;;
18881;SDS011;9573;50.948;11.600;2024-02-21T10:14:05;12.90;;;3.60;;
18881;SDS011;9573;50.948;11.600;2024-02-21T10:16:33;12.23;;;3.20;;
18881;SDS011;9573;50.948;11.600;2024-02-21T10:19:02;12.77;;;4.03;;
18881;SDS011;9573;50.948;11.600;2024-02-21T10:21:29;15.47;;;3.60;;
18881;SDS011;9573;50.948;11.600;2024-02-21T10:23:56;15.07;;;3.40;;
18881;SDS011;9573;50.948;11.600;2024-02-21T10:26:25;16.73;;;3.77;;
18881;SDS011;9573;50.948;11.600;2024-02-21T10:28:52;12.87;;;3.60;;
18881;SDS011;9573;50.948;11.600;2024-02-21T10:31:23;13.40;;;3.90;;
18881;SDS011;9573;50.948;11.600;2024-02-21T10:33:54;11.47;;;3.37;;
18881;SDS011;9573;50.948;11.600;2024-02-21T10:36:22;13.03;;;3.37;;
18881;SDS011;9573;50.948;11.600;2024-02-21T10:38:50;12.67;;;3.20;;
18881;SDS011;9573;50.948;11.600;2024-02-21T10:41:19;8.67;;;2.90;;
18881;SDS011;9573;50.948;11.600;2024-02-21T10:43:49;11.00;;;3.30;;
18881;SDS011;9573;50.948;11.600;2024-02-21T10:46:20;10.23;;;2.90;;
18881;SDS011;9573;50.948;11.600;2024-02-21T10:48:52;8.90;;;2.80;;
18881;SDS011;9573;50.948;11.600;2024-02-21T10:51:32;8.13;;;2.90;;
18881;SDS011;9573;50.948;11.600;2024-02-21T10:54:02;8.53;;;2.93;;
18881;SDS011;9573;50.948;11.600;2024-02-21T10:56:42;9.03;;;2.80;;
18881;SDS011;9573;50.948;11.600;2024-02-21T10:59:11;6.03;;;2.53;;
18881;SDS011;9573;50.948;11.600;2024-02-21T11:01:40;12.17;;;3.00;;
18881;SDS011;9573;50.948;11.600;2024-02-21T11:04:07;5.67;;;2.70;;
18881;SDS011;9573;50.948;11.600;2024-02-21T11:06:36;8.77;;;2.73;;
18881;SDS011;9573;50.948;11.600;2024-02-21T11:09:06;9.23;;;3.07;;
18881;SDS011;9573;50.948;11.600;2024-02-21T11:11:34;9.00;;;2.80;;
18881;SDS011;9573;50.948;11.600;2024-02-21T11:14:04;8.23;;;2.63;;
18881;SDS011;9573;50.948;11.600;2024-02-21T11:16:37;8.57;;;2.70;;
18881;SDS011;9573;50.948;11.600;2024-02-21T11:19:06;12.30;;;2.97;;
18881;SDS011;9573;50.948;11.600;2024-02-21T11:21:35;10.10;;;2.90;;
18881;SDS011;9573;50.948;11.600;2024-02-21T11:24:03;15.27;;;3.20;;
18881;SDS011;9573;50.948;11.600;2024-02-21T11:26:31;10.73;;;3.17;;
18881;SDS011;9573;50.948;11.600;2024-02-21T11:28:59;11.13;;;2.60;;
18881;SDS011;9573;50.948;11.600;2024-02-21T11:31:27;10.20;;;3.37;;
18881;SDS011;9573;50.948;11.600;2024-02-21T11:34:10;7.07;;;2.70;;
18881;SDS011;9573;50.948;11.600;2024-02-21T11:36:45;8.33;;;2.50;;
18881;SDS011;9573;50.948;11.600;2024-02-21T11:39:17;8.97;;;3.03;;
18881;SDS011;9573;50.948;11.600;2024-02-21T11:42:00;12.37;;;3.37;;
18881;SDS011;9573;50.948;11.600;2024-02-21T11:44:29;11.93;;;3.03;;
18881;SDS011;9573;50.948;11.600;2024-02-21T11:46:57;16.80;;;3.37;;
18881;SDS011;9573;50.948;11.600;2024-02-21T11:49:24;10.83;;;3.40;;
18881;SDS011;9573;50.948;11.600;2024-02-21T11:51:57;8.87;;;2.97;;
18881;SDS011;9573;50.948;11.600;2024-02-21T11:54:25;14.60;;;3.10;;
18881;SDS011;9573;50.948;11.600;2024-02-21T11:56:53;16.57;;;3.57;;
18881;SDS011;9573;50.948;11.600;2024-02-21T11:59:20;14.33;;;3.27;;
18881;SDS011;9573;50.948;11.600;2024-02-21T12:01:48;9.70;;;3.03;;
18881;SDS011;9573;50.948;11.600;2024-02-21T12:04:18;12.77;;;3.13;;
18881;SDS011;9573;50.948;11.600;2024-02-21T12:06:48;10.23;;;2.63;;
18881;SDS011;9573;50.948;11.600;2024-02-21T12:09:16;11.33;;;2.73;;
18881;SDS011;9573;50.948;11.600;2024-02-21T12:11:43;6.93;;;2.37;;
18881;SDS011;9573;50.948;11.600;2024-02-21T12:14:15;11.00;;;2.80;;
18881;SDS011;9573;50.948;11.600;2024-02-21T12:16:43;16.93;;;3.17;;
18881;SDS011;9573;50.948;11.600;2024-02-21T12:19:12;9.70;;;2.50;;
18881;SDS011;9573;50.948;11.600;2024-02-21T12:21:43;11.37;;;2.97;;
18881;SDS011;9573;50.948;11.600;2024-02-21T12:24:13;11.13;;;2.97;;
18881;SDS011;9573;50.948;11.600;2024-02-21T12:26:41;10.10;;;2.80;;
18881;SDS011;9573;50.948;11.600;2024-02-21T12:29:09;10.47;;;2.67;;
18881;SDS011;9573;50.948;11.600;2024-02-21T12:31:36;9.77;;;2.80;;
18881;SDS011;9573;50.948;11.600;2024-02-21T12:34:03;11.77;;;3.00;;
18881;SDS011;9573;50.948;11.600;2024-02-21T12:36:31;11.10;;;2.70;;
18881;SDS011;9573;50.948;11.600;2024-02-21T12:39:00;10.23;;;2.90;;
18881;SDS011;9573;50.948;11.600;2024-02-21T12:41:29;4.93;;;2.30;;
18881;SDS011;9573;50.948;11.600;2024-02-21T12:43:58;9.20;;;2.70;;
18881;SDS011;9573;50.948;11.600;2024-02-21T12:46:25;11.77;;;2.73;;
18881;SDS011;9573;50.948;11.600;2024-02-21T12:48:52;12.73;;;2.87;;
18881;SDS011;9573;50.948;11.600;2024-02-21T12:51:19;7.67;;;2.67;;
18881;SDS011;9573;50.948;11.600;2024-02-21T12:53:46;11.70;;;2.77;;
18881;SDS011;9573;50.948;11.600;2024-02-21T12:56:16;11.07;;;3.00;;
18881;SDS011;9573;50.948;11.600;2024-02-21T12:58:43;11.13;;;2.80;;
18881;SDS011;9573;50.948;11.600;2024-02-21T13:01:10;10.30;;;2.73;;
18881;SDS011;9573;50.948;11.600;2024-02-21T13:03:37;8.73;;;2.80;;
18881;SDS011;9573;50.948;11.600;2024-02-21T13:06:05;15.40;;;3.37;;
18881;SDS011;9573;50.948;11.600;2024-02-21T13:08:35;16.77;;;3.20;;
18881;SDS011;9573;50.948;11.600;2024-02-21T13:11:02;12.13;;;3.13;;
18881;SDS011;9573;50.948;11.600;2024-02-21T13:13:31;10.47;;;3.00;;
18881;SDS011;9573;50.948;11.600;2024-02-21T13:15:58;11.20;;;3.27;;
18881;SDS011;9573;50.948;11.600;2024-02-21T13:18:26;8.60;;;2.50;;
18881;SDS011;9573;50.948;11.600;2024-02-21T13:20:53;8.47;;;2.80;;
18881;SDS011;9573;50.948;11.600;2024-02-21T13:23:21;11.03;;;2.60;;
18881;SDS011;9573;50.948;11.600;2024-02-21T13:25:48;10.93;;;2.50;;
18881;SDS011;9573;50.948;11.600;2024-02-21T13:28:15;8.13;;;2.50;;
18881;SDS011;9573;50.948;11.600;2024-02-21T13:30:44;10.17;;;2.70;;
18881;SDS011;9573;50.948;11.600;2024-02-21T13:33:14;9.63;;;2.50;;
18881;SDS011;9573;50.948;11.600;2024-02-21T13:35:41;10.47;;;3.00;;
18881;SDS011;9573;50.948;11.600;2024-02-21T13:38:09;9.50;;;2.90;;
18881;SDS011;9573;50.948;11.600;2024-02-21T13:40:36;8.20;;;2.80;;
18881;SDS011;9573;50.948;11.600;2024-02-21T13:43:04;11.53;;;2.60;;
18881;SDS011;9573;50.948;11.600;2024-02-21T13:45:31;10.13;;;2.90;;
18881;SDS011;9573;50.948;11.600;2024-02-21T13:47:59;13.03;;;2.90;;
18881;SDS011;9573;50.948;11.600;2024-02-21T13:50:29;9.97;;;2.50;;
18881;SDS011;9573;50.948;11.600;2024-02-21T13:52:57;8.70;;;2.47;;
18881;SDS011;9573;50.948;11.600;2024-02-21T13:55:24;11.07;;;2.87;;
18881;SDS011;9573;50.948;11.600;2024-02-21T13:57:52;10.07;;;2.60;;
18881;SDS011;9573;50.948;11.600;2024-02-21T14:00:19;11.77;;;2.67;;
18881;SDS011;9573;50.948;11.600;2024-02-21T14:02:46;7.53;;;2.50;;
18881;SDS011;9573;50.948;11.600;2024-02-21T14:05:15;12.67;;;2.80;;
18881;SDS011;9573;50.948;11.600;2024-02-21T14:07:42;10.43;;;2.67;;
18881;SDS011;9573;50.948;11.600;2024-02-21T14:10:09;11.83;;;2.87;;
18881;SDS011;9573;50.948;11.600;2024-02-21T14:12:36;8.93;;;2.37;;
18881;SDS011;9573;50.948;11.600;2024-02-21T14:15:05;12.87;;;2.90;;
18881;SDS011;9573;50.948;11.600;2024-02-21T14:17:34;7.40;;;2.40;;
18881;SDS011;9573;50.948;11.600;2024-02-21T14:20:01;13.40;;;2.97;;
18881;SDS011;9573;50.948;11.600;2024-02-21T14:22:29;13.57;;;2.90;;
18881;SDS011;9573;50.948;11.600;2024-02-21T14:24:56;10.47;;;2.80;;
18881;SDS011;9573;50.948;11.600;2024-02-21T14:27:23;6.53;;;2.27;;
18881;SDS011;9573;50.948;11.600;2024-02-21T14:29:50;13.03;;;2.63;;
18881;SDS011;9573;50.948;11.600;2024-02-21T14:32:18;11.93;;;3.00;;
18881;SDS011;9573;50.948;11.600;2024-02-21T14:34:45;10.43;;;2.70;;
18881;SDS011;9573;50.948;11.600;2024-02-21T14:37:12;10.53;;;2.53;;
18881;SDS011;9573;50.948;11.600;2024-02-21T14:39:41;9.20;;;2.40;;